Aérodrome :
LOGIN :

S'inscrire | Disclaimer

   EN    FR    IT 

 










Légende :    VFR   VFR Marginal   IFR   IFR Intensif   IFR Très Intensif
Visi : 
Plafond : 
>= 8 km
>= 3000ft
5 à 8 km
1000 à 3000 ft
1500m à 5 km
500 à 1000 ft
800 à 1500m
200 à 500 ft
< 800m
< 200 ft
Symboles :   Orages  Brouillard  Fortes neiges  Fortes précipitations  Vent > 20 kt
SIGMETs :   Divers  Orages  Givrage  Turbulence  Onde Orograph.  Cendres Volcan.







- Altitude de l'aérodrome : 1187 ft


LIBV - Gioia del Colle Bari

DERNIER METAR :
  • 192355Z VRB03KT 9000 FEW020 08/08 Q1011 RMK BKN BKN160 VIS MIN 9000 WIND THR32 18009KT WIND THR14 VRB02KT BLU

METARs EXPIRÉS :
  • 192255Z 15007KT 9000 FEW020 09/08 Q1011 RMK BKN BKN170 VIS MIN 9000 WIND THR32 16006KT WIND THR14 16005KT BLU

TAF TAF LIBV
Valide du 20 à 00h jusqu'au 20 à 09h UTC


192300Z 2000/2009 18010KT 8000 FEW020
TEMPO 2000/2006 5000 BR SCT010
Pas de NOTAMs connus pour ce terrain.



MET'MAP, la Météo Aéronautique d'un coup d'oeil ! - Copyright ORBIFLY Décembre 2007 - Disclaimer

ORBIFLY MET'MAP TEAM :

Programmation & Développement : Alexandra Zaïnal
Conception & Développement : Baudouin d'Aumeries
Co-Programmation & Développement : Marc-Olivier Méhu
Soutien technique & logistique : Manuel Goepfert

Contact : metmap@orbifly.com




SOURCES & CREDITS :

   NOAA